Time;durP1;ratioP1;P1;durP2;ratioP2;P2;SDS_P1;SDS_P2;PMS_P1;PMS_P2;Temp;Humidity;BMP_temperature;BMP_pressure;BME280_temperature;BME280_humidity;BME280_pressure;Samples;Min_cycle;Max_cycle;Signal;HPM_P1;HPM_P2
2022/08/30 00:01:01;;;;;;;29.80;13.15;;;21.30;99.90;;;;;;5145359;28;20031;-80
2022/08/30 00:03:37;;;;;;;30.00;14.30;;;21.30;99.90;;;;;;5144864;28;20093;-80
2022/08/30 00:06:09;;;;;;;30.27;13.63;;;21.30;99.90;;;;;;5143736;28;20031;-80
2022/08/30 00:08:41;;;;;;;35.45;13.30;;;21.20;99.90;;;;;;5143642;28;20026;-80
2022/08/30 00:11:15;;;;;;;32.92;15.38;;;21.30;99.90;;;;;;5143454;28;20035;-81
2022/08/30 00:13:49;;;;;;;24.67;13.70;;;21.30;99.90;;;;;;5143838;28;20082;-80
2022/08/30 00:16:21;;;;;;;33.28;13.50;;;21.20;99.90;;;;;;5144924;28;20038;-81
2022/08/30 00:18:52;;;;;;;29.67;14.02;;;21.20;99.90;;;;;;5143693;28;20027;-81
2022/08/30 00:21:25;;;;;;;31.10;13.07;;;21.40;99.90;;;;;;5145041;28;20023;-81
2022/08/30 00:23:56;;;;;;;28.60;13.45;;;21.30;99.90;;;;;;5140765;28;20394;-81
2022/08/30 00:26:27;;;;;;;29.73;14.10;;;21.50;99.90;;;;;;5144909;28;20023;-80
2022/08/30 00:28:58;;;;;;;33.33;14.07;;;21.30;99.90;;;;;;5143808;28;20033;-81
2022/08/30 00:31:29;;;;;;;25.30;12.68;;;21.50;99.90;;;;;;5143407;28;20073;-81
2022/08/30 00:34:00;;;;;;;25.13;13.48;;;21.40;99.90;;;;;;5144982;28;20494;-81
2022/08/30 00:36:31;;;;;;;27.73;13.57;;;21.30;99.90;;;;;;5143737;28;20027;-80
2022/08/30 00:39:02;;;;;;;25.38;12.05;;;21.40;99.90;;;;;;5144553;28;20026;-80
2022/08/30 00:41:33;;;;;;;37.20;15.82;;;21.20;99.90;;;;;;5144852;28;20061;-80
2022/08/30 00:44:05;;;;;;;31.55;14.50;;;21.50;99.90;;;;;;5144686;28;20034;-80
2022/08/30 00:46:36;;;;;;;30.40;13.27;;;21.50;99.90;;;;;;5144727;28;20023;-80
2022/08/30 00:49:09;;;;;;;34.85;12.95;;;21.40;99.90;;;;;;5144943;28;20501;-80
2022/08/30 00:51:41;;;;;;;28.95;12.75;;;21.50;99.90;;;;;;5146078;28;20038;-80
2022/08/30 00:54:12;;;;;;;35.55;13.73;;;21.60;99.90;;;;;;5148742;28;20035;-80
2022/08/30 00:56:45;;;;;;;35.30;13.18;;;21.60;99.90;;;;;;5147295;28;20057;-80
2022/08/30 00:59:16;;;;;;;30.20;12.95;;;21.40;99.90;;;;;;5147339;28;20093;-79
2022/08/30 01:01:47;;;;;;;27.65;12.10;;;21.60;99.90;;;;;;5146882;28;20390;-80
2022/08/30 01:04:20;;;;;;;29.77;12.82;;;21.50;99.90;;;;;;5148391;28;20022;-79
2022/08/30 01:06:52;;;;;;;46.30;15.40;;;21.70;99.90;;;;;;5148606;28;20479;-80
2022/08/30 01:09:23;;;;;;;28.73;13.20;;;22.00;99.90;;;;;;5148544;28;20459;-80
2022/08/30 01:11:55;;;;;;;30.75;13.93;;;21.80;99.90;;;;;;5148445;28;20066;-80
2022/08/30 01:14:27;;;;;;;30.80;14.82;;;21.90;99.90;;;;;;5148580;28;20050;-80
2022/08/30 01:17:00;;;;;;;33.88;13.60;;;21.90;99.90;;;;;;5148535;28;20030;-80
2022/08/30 01:19:54;;;;;;;29.05;13.45;;;21.80;99.90;;;;;;5148461;28;20379;-80
2022/08/30 01:22:33;;;;;;;36.63;13.60;;;21.80;99.90;;;;;;5139630;28;20030;-80
2022/08/30 01:25:07;;;;;;;27.50;13.07;;;21.90;99.90;;;;;;5148477;28;20464;-80
2022/08/30 01:27:42;;;;;;;30.98;14.10;;;21.90;99.90;;;;;;5148249;28;20114;-80
2022/08/30 01:30:13;;;;;;;31.38;13.35;;;21.80;99.90;;;;;;5148274;28;20027;-80
2022/08/30 01:32:46;;;;;;;30.65;13.20;;;21.90;99.90;;;;;;5148328;28;20027;-80
2022/08/30 01:35:19;;;;;;;29.23;12.68;;;22.00;99.90;;;;;;5146849;28;20494;-80
2022/08/30 01:37:50;;;;;;;30.80;12.77;;;21.90;99.90;;;;;;5148133;28;20110;-80
2022/08/30 01:40:21;;;;;;;29.20;12.55;;;22.00;99.90;;;;;;5146657;28;20054;-80
2022/08/30 01:42:52;;;;;;;29.13;13.20;;;22.00;99.90;;;;;;5146736;28;20482;-80
2022/08/30 01:45:23;;;;;;;29.75;12.88;;;21.80;99.90;;;;;;5148226;28;20620;-81
2022/08/30 01:47:53;;;;;;;31.73;13.32;;;21.80;99.90;;;;;;5146702;28;20121;-81
2022/08/30 01:50:24;;;;;;;32.83;14.38;;;21.90;99.90;;;;;;5147787;28;20030;-81
2022/08/30 01:52:55;;;;;;;28.88;13.27;;;22.00;99.90;;;;;;5146754;28;20042;-80
2022/08/30 01:55:26;;;;;;;28.23;13.05;;;21.90;99.90;;;;;;5146542;28;20026;-81
2022/08/30 01:57:57;;;;;;;30.23;13.98;;;21.90;99.90;;;;;;5148116;28;20035;-80
2022/08/30 02:00:29;;;;;;;24.27;13.60;;;21.90;99.90;;;;;;5146642;28;20030;-80
2022/08/30 02:03:00;;;;;;;30.48;13.52;;;21.80;99.90;;;;;;5145525;28;20435;-80
2022/08/30 02:05:31;;;;;;;31.75;13.73;;;21.90;99.90;;;;;;5146396;28;20019;-80
2022/08/30 02:08:03;;;;;;;23.52;13.18;;;21.90;99.90;;;;;;5146089;28;20129;-80
2022/08/30 02:10:34;;;;;;;29.27;14.15;;;21.80;99.90;;;;;;5147353;28;20423;-81
2022/08/30 02:13:04;;;;;;;28.73;13.55;;;21.90;99.90;;;;;;5146263;28;20057;-81
2022/08/30 02:15:35;;;;;;;25.10;13.18;;;21.80;99.90;;;;;;5147041;28;20054;-80
2022/08/30 02:18:06;;;;;;;23.35;11.93;;;21.80;99.90;;;;;;5147187;28;20039;-81
2022/08/30 02:20:38;;;;;;;30.50;14.40;;;21.70;99.90;;;;;;5146338;28;20510;-81
2022/08/30 02:23:09;;;;;;;33.55;13.73;;;21.80;99.90;;;;;;5146975;28;20055;-81
2022/08/30 02:25:40;;;;;;;20.40;12.23;;;21.90;99.90;;;;;;5145763;28;20023;-80
2022/08/30 02:28:12;;;;;;;26.77;11.95;;;21.70;99.90;;;;;;5147341;28;20118;-81
2022/08/30 02:30:43;;;;;;;27.65;12.10;;;21.70;99.90;;;;;;5147141;28;20023;-81
2022/08/30 02:33:14;;;;;;;22.17;12.45;;;21.80;99.90;;;;;;5145664;28;20034;-80
2022/08/30 02:35:45;;;;;;;30.15;14.52;;;21.90;99.90;;;;;;5145866;28;20035;-80
2022/08/30 02:38:16;;;;;;;27.67;14.13;;;21.90;99.90;;;;;;5147137;28;20474;-80
2022/08/30 02:40:47;;;;;;;30.17;14.57;;;22.10;99.90;;;;;;5145452;28;20059;-81
2022/08/30 02:43:18;;;;;;;28.08;14.00;;;21.90;99.90;;;;;;5145558;28;20038;-81
2022/08/30 02:45:50;;;;;;;21.35;12.00;;;21.80;99.90;;;;;;5147000;28;20026;-81
2022/08/30 02:48:21;;;;;;;26.85;12.02;;;21.70;99.90;;;;;;5145699;28;20042;-81
2022/08/30 02:50:52;;;;;;;26.92;14.07;;;21.90;99.90;;;;;;5145266;28;20379;-81
2022/08/30 02:53:23;;;;;;;21.30;12.90;;;21.80;99.90;;;;;;5142280;28;20034;-81
2022/08/30 02:55:54;;;;;;;22.13;14.02;;;21.80;99.90;;;;;;5146787;28;20387;-81
2022/08/30 02:58:25;;;;;;;27.67;12.68;;;21.80;99.90;;;;;;5145328;28;20039;-81
2022/08/30 03:00:56;;;;;;;24.08;12.90;;;21.80;99.90;;;;;;5145106;28;20022;-81
2022/08/30 03:03:26;;;;;;;21.30;12.38;;;21.80;99.90;;;;;;5145312;28;20038;-80
2022/08/30 03:05:57;;;;;;;22.52;11.98;;;21.90;99.90;;;;;;5145411;28;20030;-80
2022/08/30 03:08:29;;;;;;;29.52;13.95;;;21.90;99.90;;;;;;5146513;28;20398;-80
2022/08/30 03:11:01;;;;;;;20.42;12.63;;;21.90;99.90;;;;;;5144788;28;20027;-79
2022/08/30 03:13:32;;;;;;;18.15;11.95;;;21.80;99.90;;;;;;5145091;28;20027;-81
2022/08/30 03:16:03;;;;;;;16.60;12.57;;;21.70;99.90;;;;;;5145040;28;20367;-80
2022/08/30 03:18:34;;;;;;;23.23;13.05;;;21.80;99.90;;;;;;5146310;28;20041;-80
2022/08/30 03:21:12;;;;;;;20.15;12.57;;;21.80;99.90;;;;;;5144994;28;20117;-80
2022/08/30 03:23:44;;;;;;;15.63;13.13;;;21.70;99.90;;;;;;5144806;28;21419;-80
2022/08/30 03:26:15;;;;;;;24.50;14.35;;;21.70;99.90;;;;;;5146189;28;20023;-80
2022/08/30 03:28:45;;;;;;;22.15;13.32;;;21.90;99.90;;;;;;5146089;28;20085;-80
2022/08/30 03:31:16;;;;;;;19.58;12.63;;;21.80;99.90;;;;;;5146202;28;20019;-80
2022/08/30 03:33:47;;;;;;;23.80;13.40;;;21.80;99.90;;;;;;5144328;28;20033;-80
2022/08/30 03:36:18;;;;;;;24.35;16.58;;;21.80;99.90;;;;;;5144755;28;20031;-80
2022/08/30 03:38:49;;;;;;;19.15;13.38;;;21.80;99.90;;;;;;5145864;28;20034;-80
2022/08/30 03:41:20;;;;;;;22.92;15.23;;;21.80;99.90;;;;;;5145510;28;20054;-81
2022/08/30 03:43:51;;;;;;;21.88;13.98;;;21.80;99.90;;;;;;5143444;28;20406;-80
2022/08/30 03:46:22;;;;;;;19.15;13.75;;;21.90;99.90;;;;;;5145501;28;20479;-81
2022/08/30 03:48:54;;;;;;;23.35;15.65;;;21.70;99.90;;;;;;5144499;28;20027;-80
2022/08/30 03:51:25;;;;;;;24.20;14.80;;;21.80;99.90;;;;;;5133382;28;20026;-80
2022/08/30 03:53:58;;;;;;;22.98;13.05;;;21.80;99.90;;;;;;5144473;28;20061;-80
2022/08/30 03:56:29;;;;;;;25.38;14.25;;;21.80;99.90;;;;;;5145589;28;20105;-81
2022/08/30 03:59:00;;;;;;;22.77;13.77;;;22.00;99.90;;;;;;5144354;28;20034;-80
2022/08/30 04:01:31;;;;;;;20.80;13.60;;;21.90;99.90;;;;;;5144290;28;20027;-80
2022/08/30 04:04:02;;;;;;;20.75;12.68;;;22.00;99.90;;;;;;5145176;28;20061;-81
2022/08/30 04:06:33;;;;;;;20.42;13.25;;;22.00;99.90;;;;;;5144339;28;20030;-80
2022/08/30 04:09:04;;;;;;;18.33;13.15;;;22.10;99.90;;;;;;5144131;28;20030;-80
2022/08/30 04:11:35;;;;;;;20.73;13.50;;;22.10;99.90;;;;;;5144072;28;20067;-80
2022/08/30 04:14:06;;;;;;;21.30;13.77;;;22.30;99.90;;;;;;5145497;28;20061;-80
2022/08/30 04:16:37;;;;;;;17.55;12.88;;;22.30;99.90;;;;;;5144080;28;20078;-80
2022/08/30 04:19:08;;;;;;;19.83;13.30;;;22.40;99.90;;;;;;5145473;28;20026;-80
2022/08/30 04:21:39;;;;;;;24.50;15.10;;;22.50;99.90;;;;;;5144192;28;20495;-80
2022/08/30 04:24:11;;;;;;;23.08;14.52;;;22.70;99.90;;;;;;5145288;28;20081;-80
2022/08/30 04:26:42;;;;;;;30.17;14.20;;;22.70;99.90;;;;;;5145578;28;20038;-80
2022/08/30 04:29:15;;;;;;;25.67;14.82;;;22.70;99.90;;;;;;5148238;28;20070;-80
2022/08/30 04:31:46;;;;;;;17.63;12.77;;;22.70;99.90;;;;;;5149545;28;20368;-81
2022/08/30 04:34:17;;;;;;;20.50;14.02;;;22.80;99.90;;;;;;5148289;28;20030;-79
2022/08/30 04:36:48;;;;;;;20.88;13.55;;;22.90;99.90;;;;;;5149055;28;20030;-80
2022/08/30 04:39:19;;;;;;;25.40;13.73;;;22.90;99.90;;;;;;5148858;28;20089;-79
2022/08/30 04:41:50;;;;;;;21.23;13.23;;;23.10;99.90;;;;;;5147885;28;20093;-80
2022/08/30 04:44:21;;;;;;;23.67;13.40;;;23.20;99.90;;;;;;5149108;28;20821;-80
2022/08/30 04:46:53;;;;;;;23.00;13.32;;;23.30;99.90;;;;;;5149236;28;20513;-81
2022/08/30 04:49:23;;;;;;;19.70;13.65;;;23.40;99.90;;;;;;5147893;28;20034;-81
2022/08/30 04:51:54;;;;;;;20.90;12.85;;;23.60;99.90;;;;;;5148708;28;20509;-80
2022/08/30 04:54:25;;;;;;;23.08;13.35;;;23.80;99.90;;;;;;5147560;28;20027;-80
2022/08/30 04:56:56;;;;;;;24.67;11.93;;;24.20;99.90;;;;;;5149041;28;20019;-80
2022/08/30 04:59:27;;;;;;;26.35;11.85;;;24.20;99.90;;;;;;5148991;28;20077;-80
2022/08/30 05:01:59;;;;;;;27.65;11.57;;;24.30;99.90;;;;;;5147519;28;20113;-80
2022/08/30 05:04:30;;;;;;;26.95;12.90;;;24.40;99.90;;;;;;5147736;28;20371;-80
2022/08/30 05:07:00;;;;;;;26.23;13.13;;;24.60;99.90;;;;;;5147585;28;20382;-80
2022/08/30 05:09:31;;;;;;;26.75;11.57;;;24.70;99.90;;;;;;5148650;28;20027;-80
2022/08/30 05:12:02;;;;;;;23.38;11.70;;;24.70;99.90;;;;;;5148691;28;20038;-80
2022/08/30 05:14:33;;;;;;;21.33;12.27;;;24.80;99.90;;;;;;5148629;28;20106;-80
2022/08/30 05:17:04;;;;;;;20.77;10.32;;;24.80;99.90;;;;;;5148316;28;20110;-79
2022/08/30 05:19:35;;;;;;;25.83;11.10;;;24.80;99.90;;;;;;5147487;28;20558;-79
2022/08/30 05:22:06;;;;;;;28.10;12.05;;;25.00;99.90;;;;;;5147278;28;20035;-79
2022/08/30 05:24:37;;;;;;;26.48;10.88;;;25.10;99.90;;;;;;5146716;28;20041;-80
2022/08/30 05:27:09;;;;;;;22.30;10.50;;;25.10;99.90;;;;;;5148367;28;20101;-80
2022/08/30 05:29:40;;;;;;;25.02;10.98;;;25.10;99.90;;;;;;5148118;28;20037;-77
2022/08/30 05:32:11;;;;;;;21.70;10.82;;;25.00;99.90;;;;;;5146345;28;20030;-80
2022/08/30 05:34:42;;;;;;;23.02;10.20;;;25.00;99.90;;;;;;5148129;28;20031;-84
2022/08/30 05:37:13;;;;;;;25.40;11.25;;;25.10;99.90;;;;;;5147987;28;20038;-82
2022/08/30 05:39:44;;;;;;;28.73;10.48;;;25.10;99.90;;;;;;5146574;28;20055;-83
2022/08/30 05:42:15;;;;;;;26.30;9.73;;;25.30;99.90;;;;;;5148033;28;20066;-81
2022/08/30 05:44:53;;;;;;;15.25;9.25;;;25.50;99.90;;;;;;5146545;28;20031;-83
2022/08/30 05:47:24;;;;;;;19.80;9.50;;;25.70;99.90;;;;;;5143416;28;20541;-84
2022/08/30 05:49:54;;;;;;;28.60;10.05;;;25.90;99.90;;;;;;5146821;28;20023;-83
2022/08/30 05:52:26;;;;;;;23.92;9.98;;;25.90;99.90;;;;;;5148131;28;20019;-83
2022/08/30 05:55:02;;;;;;;26.10;9.30;;;26.10;99.90;;;;;;5148011;28;20035;-81
2022/08/30 05:57:39;;;;;;;26.52;9.63;;;26.20;99.90;;;;;;5147985;28;20019;-82
2022/08/30 06:00:13;;;;;;;19.70;9.30;;;26.30;99.90;;;;;;5147630;28;20035;-82
2022/08/30 06:02:44;;;;;;;24.33;9.00;;;26.10;99.90;;;;;;5147114;28;20038;-82
2022/08/30 06:05:15;;;;;;;23.77;9.80;;;26.00;99.90;;;;;;5147742;28;20047;-81
2022/08/30 06:07:46;;;;;;;21.00;9.00;;;26.00;99.90;;;;;;5146196;28;20069;-84
2022/08/30 06:10:17;;;;;;;20.88;9.63;;;25.90;99.90;;;;;;5540352;22;21516;-80
2022/08/30 06:12:48;;;;;;;26.25;9.30;;;26.00;99.90;;;;;;5144275;28;20045;-83
2022/08/30 06:15:19;;;;;;;20.25;9.13;;;26.20;99.90;;;;;;5145472;28;20042;-84
2022/08/30 06:17:50;;;;;;;21.27;9.05;;;26.10;99.90;;;;;;5145819;28;20019;-80
2022/08/30 06:20:22;;;;;;;21.85;8.85;;;26.20;99.90;;;;;;5147151;28;20066;-83
2022/08/30 06:22:53;;;;;;;22.13;9.70;;;26.20;99.90;;;;;;5146927;28;20445;-84
2022/08/30 06:25:23;;;;;;;24.08;9.38;;;26.10;99.90;;;;;;5145698;28;20117;-82
2022/08/30 06:27:54;;;;;;;27.65;10.02;;;26.40;99.90;;;;;;5146349;28;20062;-84
2022/08/30 06:30:25;;;;;;;18.15;9.25;;;26.90;99.90;;;;;;5146826;28;20066;-84
2022/08/30 06:32:57;;;;;;;23.92;9.68;;;26.90;99.90;;;;;;5146741;28;20090;-84
2022/08/30 06:35:28;;;;;;;22.00;9.25;;;26.90;99.90;;;;;;5145648;28;20117;-84
2022/08/30 06:37:59;;;;;;;23.35;9.82;;;27.00;99.90;;;;;;5146446;28;20027;-83
2022/08/30 06:40:30;;;;;;;18.45;9.25;;;27.00;99.90;;;;;;5139007;28;20388;-83
2022/08/30 06:43:01;;;;;;;17.33;8.77;;;26.90;99.90;;;;;;5136766;28;20031;-84
2022/08/30 06:45:35;;;;;;;25.27;9.82;;;26.80;99.90;;;;;;5134381;28;20034;-84
2022/08/30 06:48:06;;;;;;;20.42;9.70;;;26.70;99.90;;;;;;5137771;28;20030;-84
2022/08/30 06:50:37;;;;;;;16.95;9.07;;;26.70;99.90;;;;;;5137255;28;20991;-84
2022/08/30 06:53:08;;;;;;;23.90;9.98;;;26.70;99.90;;;;;;5131365;28;20023;-84
2022/08/30 06:55:39;;;;;;;23.00;9.43;;;26.70;99.90;;;;;;5135802;28;20403;-83
2022/08/30 06:58:10;;;;;;;26.67;9.35;;;26.70;99.90;;;;;;5132256;28;20046;-84
2022/08/30 07:00:43;;;;;;;17.63;8.82;;;26.80;99.90;;;;;;5137384;28;20039;-84
2022/08/30 07:03:14;;;;;;;22.25;9.68;;;26.80;99.90;;;;;;5131513;28;20407;-84
2022/08/30 07:05:47;;;;;;;21.48;9.30;;;26.70;99.90;;;;;;5136386;28;20106;-85
2022/08/30 07:08:18;;;;;;;21.75;9.73;;;27.00;99.90;;;;;;5128026;28;20502;-83
2022/08/30 07:10:52;;;;;;;21.10;9.10;;;27.00;99.90;;;;;;5135718;28;20050;-84
2022/08/30 07:13:23;;;;;;;20.85;9.52;;;27.00;99.90;;;;;;5133952;28;20038;-82
2022/08/30 07:15:54;;;;;;;25.15;9.48;;;26.80;99.90;;;;;;5137332;28;20027;-83
2022/08/30 07:21:17;;;;;;;28.15;9.82;;;26.60;99.90;;;;;;5143448;28;20206;-82
2022/08/30 07:23:49;;;;;;;22.42;9.90;;;26.60;99.90;;;;;;5140329;28;20042;-85
2022/08/30 07:26:24;;;;;;;26.13;10.23;;;26.80;99.90;;;;;;5130484;28;20027;-86
2022/08/30 07:28:55;;;;;;;27.35;10.18;;;26.80;99.90;;;;;;5136479;28;20026;-84
2022/08/30 07:31:27;;;;;;;21.60;10.18;;;26.90;99.90;;;;;;5133210;28;20073;-86
2022/08/30 07:33:58;;;;;;;21.00;9.82;;;27.00;99.90;;;;;;5136939;28;20031;-84
2022/08/30 07:36:29;;;;;;;28.52;10.15;;;27.20;99.90;;;;;;5140425;28;20074;-82
2022/08/30 07:39:00;;;;;;;25.17;10.38;;;27.30;99.90;;;;;;5136555;28;20493;-85
2022/08/30 07:41:34;;;;;;;25.63;10.07;;;27.20;99.90;;;;;;5135892;28;20024;-86
2022/08/30 07:44:07;;;;;;;25.08;9.80;;;27.00;99.90;;;;;;5132747;28;20403;-85
2022/08/30 07:46:38;;;;;;;19.55;10.00;;;27.00;99.90;;;;;;5132412;28;20042;-85
2022/08/30 07:49:10;;;;;;;32.92;10.02;;;27.60;99.90;;;;;;5139078;28;20058;-86
2022/08/30 07:51:41;;;;;;;22.77;9.38;;;27.80;99.90;;;;;;5139445;28;20034;-84
2022/08/30 07:54:12;;;;;;;28.50;9.60;;;27.70;99.90;;;;;;5131977;28;20372;-85
2022/08/30 07:56:43;;;;;;;26.35;9.15;;;27.90;99.90;;;;;;5139269;28;20030;-84
2022/08/30 07:59:14;;;;;;;27.15;9.98;;;27.80;99.90;;;;;;5133280;28;20045;-85
2022/08/30 08:01:45;;;;;;;25.10;9.30;;;27.70;99.90;;;;;;5130089;28;20409;-84
2022/08/30 08:04:15;;;;;;;23.80;9.07;;;27.60;99.90;;;;;;5131743;28;20038;-84
2022/08/30 08:06:47;;;;;;;29.27;9.40;;;28.00;99.90;;;;;;5135415;28;20019;-85
2022/08/30 08:09:18;;;;;;;32.28;9.85;;;28.20;99.90;;;;;;5128937;28;20032;-85
2022/08/30 08:11:49;;;;;;;25.08;10.20;;;28.00;99.90;;;;;;5136843;28;20027;-84
2022/08/30 08:14:22;;;;;;;29.92;9.90;;;27.90;99.90;;;;;;5138007;28;20483;-82
2022/08/30 08:16:53;;;;;;;22.90;9.25;;;28.10;99.90;;;;;;5130430;28;20031;-84
2022/08/30 08:19:24;;;;;;;26.10;9.32;;;27.90;99.90;;;;;;5134571;28;20027;-81
2022/08/30 08:21:58;;;;;;;23.65;10.00;;;27.90;99.90;;;;;;5130642;28;20108;-82
2022/08/30 08:24:29;;;;;;;25.45;10.55;;;27.90;99.90;;;;;;5135953;28;20034;-83
2022/08/30 08:27:01;;;;;;;23.85;9.52;;;28.00;99.90;;;;;;5134741;28;20398;-82
2022/08/30 08:29:32;;;;;;;25.95;9.20;;;27.80;99.90;;;;;;5129041;28;20491;-82
2022/08/30 08:32:03;;;;;;;30.63;9.93;;;28.00;99.90;;;;;;5134383;28;20117;-79
2022/08/30 08:34:35;;;;;;;25.88;9.82;;;27.70;99.90;;;;;;5135175;28;20034;-82
2022/08/30 08:37:06;;;;;;;26.73;9.77;;;27.60;99.90;;;;;;5133793;28;20019;-80
2022/08/30 08:39:37;;;;;;;28.08;9.68;;;27.60;99.90;;;;;;5135714;28;20037;-77
2022/08/30 08:42:18;;;;;;;32.05;10.20;;;28.00;99.90;;;;;;5129128;28;20071;-80
2022/08/30 08:45:22;;;;;;;26.27;9.27;;;27.80;99.90;;;;;;5129784;28;20031;-81
2022/08/30 08:48:03;;;;;;;27.80;9.93;;;28.40;99.90;;;;;;5083574;28;20113;-81
2022/08/30 08:50:35;;;;;;;21.92;8.95;;;28.20;99.90;;;;;;5133079;28;20031;-84
2022/08/30 08:53:35;;;;;;;19.35;9.05;;;28.10;99.90;;;;;;5130264;28;20031;-81
2022/08/30 08:56:11;;;;;;;26.10;9.48;;;27.90;99.90;;;;;;5134806;28;20057;-84
2022/08/30 08:58:45;;;;;;;28.27;9.55;;;28.10;99.90;;;;;;5140284;28;20042;-84
2022/08/30 09:01:19;;;;;;;26.40;11.13;;;28.00;99.90;;;;;;5126469;28;20376;-82
2022/08/30 09:03:51;;;;;;;26.25;9.32;;;27.90;99.90;;;;;;5140354;28;20039;-81
2022/08/30 09:06:37;;;;;;;27.27;10.07;;;27.90;99.90;;;;;;5136852;28;20028;-81
2022/08/30 09:09:08;;;;;;;25.40;6.00;;;28.10;99.90;;;;;;5133981;28;20077;-81
2022/08/30 09:11:41;;;;;;;33.92;15.40;;;28.30;99.90;;;;;;5131322;28;20507;-81
2022/08/30 09:14:18;;;;;;;26.45;13.95;;;28.10;99.90;;;;;;5138208;28;20023;-82
2022/08/30 09:16:57;;;;;;;1554.40;844.22;;;27.70;99.90;;;;;;5141310;28;20023;-81
2022/08/30 09:19:44;;;;;;;379.00;291.20;;;28.10;99.90;;;;;;5126547;28;20030;-78
2022/08/30 09:22:30;;;;;;;33.60;6.25;;;28.40;99.90;;;;;;5138119;28;20030;-80
2022/08/30 09:25:19;;;;;;;21.67;6.15;;;28.40;99.90;;;;;;5130920;28;20034;-78
2022/08/30 09:27:51;;;;;;;;;;;28.20;99.90;;;;;;5129881;28;20027;-79
2022/08/30 09:30:26;;;;;;;36.42;6.50;;;28.30;99.90;;;;;;5136685;28;19985;-81
2022/08/30 09:33:00;;;;;;;121.97;9.05;;;28.80;99.90;;;;;;5132561;28;20135;-77
2022/08/30 09:35:45;;;;;;;21.88;6.30;;;28.60;99.90;;;;;;5131480;28;20069;-80
2022/08/30 09:38:20;;;;;;;1239.55;289.27;;;28.40;99.90;;;;;;5134868;28;20470;-80
2022/08/30 09:40:54;;;;;;;22.98;7.18;;;28.50;99.90;;;;;;5137677;28;20102;-79
2022/08/30 09:43:29;;;;;;;23.50;6.38;;;28.50;99.90;;;;;;5135928;28;20376;-80
2022/08/30 09:45:59;;;;;;;27.55;7.20;;;28.40;99.90;;;;;;5143109;28;20026;-78
2022/08/30 09:48:42;;;;;;;370.75;67.20;;;28.30;99.90;;;;;;5136863;28;20035;-77
2022/08/30 09:51:38;;;;;;;25.67;7.00;;;28.10;99.90;;;;;;5127248;28;20098;-77
2022/08/30 09:54:25;;;;;;;642.42;98.90;;;28.00;99.90;;;;;;5125149;28;20846;-80
2022/08/30 09:57:10;;;;;;;27.67;7.30;;;27.80;99.90;;;;;;5127740;28;20038;-80
2022/08/30 10:00:09;;;;;;;751.78;78.13;;;27.90;99.90;;;;;;5129401;28;20027;-81
2022/08/30 10:02:57;;;;;;;20.17;6.63;;;28.70;99.90;;;;;;5146054;28;20109;-78
2022/08/30 10:05:41;;;;;;;19.45;6.63;;;28.60;99.90;;;;;;5134709;28;20043;-87
2022/08/30 10:08:49;;;;;;;26.08;7.60;;;28.50;99.90;;;;;;5130579;28;20031;-79
2022/08/30 10:11:31;;;;;;;17.52;6.53;;;28.80;99.90;;;;;;5135185;28;20086;-80
2022/08/30 10:14:16;;;;;;;22.30;7.45;;;28.50;99.90;;;;;;5130905;28;20436;-77
2022/08/30 10:17:01;;;;;;;20.45;6.75;;;28.30;99.90;;;;;;5134178;28;20023;-80
2022/08/30 10:19:56;;;;;;;28.38;6.85;;;28.60;99.90;;;;;;5129231;28;20027;-77
2022/08/30 10:22:34;;;;;;;30.02;7.18;;;28.60;99.90;;;;;;5137660;28;20129;-80
2022/08/30 10:25:32;;;;;;;23.45;7.78;;;28.30;99.90;;;;;;5133803;28;20032;-80
2022/08/30 10:28:13;;;;;;;22.73;6.90;;;29.00;99.90;;;;;;5137477;28;20023;-77
2022/08/30 10:30:55;;;;;;;24.77;6.70;;;28.90;99.90;;;;;;5134823;28;20042;-76
2022/08/30 10:33:41;;;;;;;795.50;581.28;;;28.80;99.90;;;;;;5137394;28;20034;-78
2022/08/30 10:36:14;;;;;;;25.73;7.20;;;28.80;99.90;;;;;;5139459;28;20028;-80
2022/08/30 10:38:48;;;;;;;23.05;6.70;;;28.90;99.90;;;;;;5137231;28;20031;-80
2022/08/30 10:41:35;;;;;;;41.45;7.57;;;28.70;99.90;;;;;;5127563;28;20085;-78
2022/08/30 10:44:16;;;;;;;26.48;7.00;;;28.70;99.90;;;;;;5133951;28;20034;-77
2022/08/30 10:47:15;;;;;;;42.28;7.60;;;28.60;99.90;;;;;;5137527;28;20562;-76
2022/08/30 10:49:48;;;;;;;27.17;7.95;;;28.60;99.90;;;;;;5133399;28;20292;-76
2022/08/30 10:52:32;;;;;;;1165.88;112.15;;;28.60;99.90;;;;;;5140022;28;20015;-77
2022/08/30 10:55:14;;;;;;;27.40;7.80;;;28.60;99.90;;;;;;5127874;28;20425;-79
2022/08/30 10:57:45;;;;;;;301.08;280.25;;;28.60;99.90;;;;;;5136609;28;20027;-78
2022/08/30 11:00:29;;;;;;;29.13;7.95;;;28.60;99.90;;;;;;5129886;28;20110;-78
2022/08/30 11:03:15;;;;;;;32.58;8.75;;;28.60;99.90;;;;;;5133088;28;20026;-77
2022/08/30 11:05:52;;;;;;;1588.50;158.38;;;28.40;99.90;;;;;;5133554;28;20093;-75
2022/08/30 11:08:54;;;;;;;26.02;8.70;;;28.90;99.90;;;;;;5145229;28;20033;-77
2022/08/30 11:12:03;;;;;;;561.67;514.75;;;29.00;99.90;;;;;;5131129;28;20093;-76
2022/08/30 11:14:40;;;;;;;33.20;9.70;;;29.00;99.90;;;;;;5127787;28;20035;-77
2022/08/30 11:17:31;;;;;;;29.67;10.52;;;29.00;99.90;;;;;;5137826;28;20041;-78
2022/08/30 11:20:04;;;;;;;34.50;10.32;;;29.00;99.90;;;;;;5129238;28;20030;-79
2022/08/30 11:22:36;;;;;;;29.10;9.27;;;28.90;99.90;;;;;;5133075;28;20039;-76
2022/08/30 11:25:35;;;;;;;24.75;9.10;;;29.00;99.90;;;;;;5133571;28;20034;-76
2022/08/30 11:28:07;;;;;;;1567.50;313.67;;;28.80;99.90;;;;;;5134401;28;20027;-79
2022/08/30 11:30:37;;;;;;;32.53;10.50;;;29.00;99.90;;;;;;5137767;28;20027;-80
2022/08/30 11:33:11;;;;;;;360.48;41.30;;;29.00;99.90;;;;;;5135348;28;20039;-78
2022/08/30 11:35:44;;;;;;;35.38;12.88;;;29.20;99.90;;;;;;5133723;28;20029;-76
2022/08/30 11:38:27;;;;;;;34.90;14.32;;;28.90;99.90;;;;;;5123588;28;20111;-77
2022/08/30 11:41:11;;;;;;;36.97;14.40;;;28.70;99.90;;;;;;5138097;28;20035;-77
2022/08/30 11:43:42;;;;;;;32.88;13.27;;;28.70;99.90;;;;;;5141065;28;20039;-77
2022/08/30 11:46:25;;;;;;;36.03;12.63;;;28.60;99.90;;;;;;5139106;28;20186;-78
2022/08/30 11:49:04;;;;;;;31.52;12.52;;;28.60;99.90;;;;;;5136404;28;20035;-76
2022/08/30 11:51:56;;;;;;;40.20;11.93;;;28.90;99.90;;;;;;5135342;28;20035;-77
2022/08/30 11:55:00;;;;;;;1999.90;999.90;;;28.90;99.90;;;;;;5137715;28;20264;-76
2022/08/30 11:57:49;;;;;;;88.72;15.98;;;29.40;99.90;;;;;;5130432;28;20027;-76
2022/08/30 12:00:38;;;;;;;35.58;16.30;;;29.40;99.90;;;;;;5136258;28;20030;-77
2022/08/30 12:03:15;;;;;;;89.45;22.90;;;28.90;99.90;;;;;;5130418;28;20447;-76
2022/08/30 12:05:51;;;;;;;1999.90;999.90;;;29.00;99.90;;;;;;5132001;28;20418;-75
2022/08/30 12:08:33;;;;;;;1999.90;999.90;;;29.00;99.90;;;;;;5140180;28;20033;-79
2022/08/30 12:11:17;;;;;;;1999.90;999.90;;;28.70;99.90;;;;;;5131451;28;20061;-78
2022/08/30 12:13:52;;;;;;;1999.90;999.90;;;28.50;99.90;;;;;;5139931;28;20023;-79
2022/08/30 12:19:35;;;;;;;1999.90;999.90;;;28.30;99.90;;;;;;5126864;29;20037;-79
2022/08/30 12:22:06;;;;;;;1999.90;999.90;;;28.80;99.90;;;;;;5133432;28;20122;-79
2022/08/30 12:24:42;;;;;;;1999.90;999.90;;;28.40;99.90;;;;;;5130562;28;20079;-80
2022/08/30 12:27:26;;;;;;;1999.90;999.90;;;28.00;99.90;;;;;;5132733;28;20023;-79
2022/08/30 12:30:01;;;;;;;1999.90;999.90;;;28.10;99.90;;;;;;5126315;28;20491;-79
2022/08/30 12:32:32;;;;;;;1999.90;999.90;;;28.80;99.90;;;;;;5136250;28;20030;-80
2022/08/30 12:35:06;;;;;;;1999.90;999.90;;;29.20;99.90;;;;;;5136151;28;20392;-80
2022/08/30 12:40:21;;;;;;;1999.90;999.90;;;29.10;99.90;;;;;;5179556;23;20058;-82
2022/08/30 12:42:56;;;;;;;1999.90;999.90;;;28.80;99.90;;;;;;5144567;28;20121;-82
2022/08/30 12:45:50;;;;;;;1999.90;999.90;;;28.90;99.90;;;;;;5145006;28;20037;-80
2022/08/30 12:48:21;;;;;;;1999.90;999.90;;;29.00;99.90;;;;;;5145849;28;20090;-80
2022/08/30 12:50:55;;;;;;;1999.90;999.90;;;29.40;99.90;;;;;;5148430;28;20026;-77
2022/08/30 12:53:31;;;;;;;1999.90;999.90;;;29.70;99.90;;;;;;5144258;28;20034;-78
2022/08/30 12:56:09;;;;;;;1999.90;999.90;;;30.00;99.90;;;;;;5147274;28;20131;-79
2022/08/30 12:58:46;;;;;;;1999.90;999.90;;;29.70;99.90;;;;;;5147437;28;20031;-80
2022/08/30 13:01:19;;;;;;;1999.90;999.90;;;29.40;99.90;;;;;;5147609;28;20109;-78
2022/08/30 13:03:56;;;;;;;1999.90;999.90;;;29.20;99.90;;;;;;5147158;28;20041;-80
2022/08/30 13:06:41;;;;;;;1999.90;999.90;;;29.10;99.90;;;;;;5148519;28;20379;-81
2022/08/30 13:09:23;;;;;;;1999.90;999.90;;;29.90;99.90;;;;;;5146961;28;20054;-81
2022/08/30 13:11:55;;;;;;;1999.90;999.90;;;29.90;99.90;;;;;;5148478;28;20042;-79
2022/08/30 13:14:32;;;;;;;1999.90;999.90;;;30.00;99.90;;;;;;5148065;28;20086;-80